sensor_id;sensor_type;location;lat;lon;timestamp;P1;P2;P0
74333;PMS5003;62753;40.394;-80.022;2023-10-13T00:00:32;9;7;
74333;PMS5003;62753;40.394;-80.022;2023-10-13T00:02:57;6;6;
74333;PMS5003;62753;40.394;-80.022;2023-10-13T00:05:22;8;8;
74333;PMS5003;62753;40.394;-80.022;2023-10-13T00:07:47;7;7;
74333;PMS5003;62753;40.394;-80.022;2023-10-13T00:10:12;8;7;
74333;PMS5003;62753;40.394;-80.022;2023-10-13T00:12:38;5;5;
74333;PMS5003;62753;40.394;-80.022;2023-10-13T00:15:04;10;8;
74333;PMS5003;62753;40.394;-80.022;2023-10-13T00:17:28;7;7;
74333;PMS5003;62753;40.394;-80.022;2023-10-13T00:19:54;8;8;
74333;PMS5003;62753;40.394;-80.022;2023-10-13T00:22:19;9;8;
74333;PMS5003;62753;40.394;-80.022;2023-10-13T00:24:45;7;7;
74333;PMS5003;62753;40.394;-80.022;2023-10-13T00:27:10;10;10;
74333;PMS5003;62753;40.394;-80.022;2023-10-13T00:29:35;9;8;
74333;PMS5003;62753;40.394;-80.022;2023-10-13T00:32:00;8;7;
74333;PMS5003;62753;40.394;-80.022;2023-10-13T00:34:26;8;6;
74333;PMS5003;62753;40.394;-80.022;2023-10-13T00:36:51;8;8;
74333;PMS5003;62753;40.394;-80.022;2023-10-13T00:39:16;7;7;
74333;PMS5003;62753;40.394;-80.022;2023-10-13T00:41:42;8;7;
74333;PMS5003;62753;40.394;-80.022;2023-10-13T00:44:07;7;6;
74333;PMS5003;62753;40.394;-80.022;2023-10-13T00:46:32;8;8;
74333;PMS5003;62753;40.394;-80.022;2023-10-13T00:48:58;6;6;
74333;PMS5003;62753;40.394;-80.022;2023-10-13T00:51:23;12;12;
74333;PMS5003;62753;40.394;-80.022;2023-10-13T00:53:48;15;15;
74333;PMS5003;62753;40.394;-80.022;2023-10-13T00:56:14;17;15;
74333;PMS5003;62753;40.394;-80.022;2023-10-13T00:58:39;15;13;
74333;PMS5003;62753;40.394;-80.022;2023-10-13T01:01:04;17;16;
74333;PMS5003;62753;40.394;-80.022;2023-10-13T01:03:30;12;11;
74333;PMS5003;62753;40.394;-80.022;2023-10-13T01:05:55;11;10;
74333;PMS5003;62753;40.394;-80.022;2023-10-13T01:10:46;11;10;
74333;PMS5003;62753;40.394;-80.022;2023-10-13T01:13:11;11;10;
74333;PMS5003;62753;40.394;-80.022;2023-10-13T01:15:37;10;10;
74333;PMS5003;62753;40.394;-80.022;2023-10-13T01:18:06;11;10;
74333;PMS5003;62753;40.394;-80.022;2023-10-13T01:20:27;8;8;
74333;PMS5003;62753;40.394;-80.022;2023-10-13T01:22:53;7;7;
74333;PMS5003;62753;40.394;-80.022;2023-10-13T01:25:18;8;7;
74333;PMS5003;62753;40.394;-80.022;2023-10-13T01:27:43;6;6;
74333;PMS5003;62753;40.394;-80.022;2023-10-13T01:30:09;7;6;
74333;PMS5003;62753;40.394;-80.022;2023-10-13T01:32:34;7;7;
74333;PMS5003;62753;40.394;-80.022;2023-10-13T01:34:59;9;9;
74333;PMS5003;62753;40.394;-80.022;2023-10-13T01:37:25;6;6;
74333;PMS5003;62753;40.394;-80.022;2023-10-13T01:39:50;8;7;
74333;PMS5003;62753;40.394;-80.022;2023-10-13T01:42:15;6;6;
74333;PMS5003;62753;40.394;-80.022;2023-10-13T01:44:41;9;7;
74333;PMS5003;62753;40.394;-80.022;2023-10-13T01:47:06;8;7;
74333;PMS5003;62753;40.394;-80.022;2023-10-13T01:49:31;9;8;
74333;PMS5003;62753;40.394;-80.022;2023-10-13T01:51:56;12;10;
74333;PMS5003;62753;40.394;-80.022;2023-10-13T01:54:22;8;8;
74333;PMS5003;62753;40.394;-80.022;2023-10-13T01:56:47;9;7;
74333;PMS5003;62753;40.394;-80.022;2023-10-13T01:59:12;10;9;
74333;PMS5003;62753;40.394;-80.022;2023-10-13T02:01:38;13;9;
74333;PMS5003;62753;40.394;-80.022;2023-10-13T02:04:04;11;11;
74333;PMS5003;62753;40.394;-80.022;2023-10-13T02:06:29;9;9;
74333;PMS5003;62753;40.394;-80.022;2023-10-13T02:08:55;9;9;
74333;PMS5003;62753;40.394;-80.022;2023-10-13T02:11:20;10;9;
74333;PMS5003;62753;40.394;-80.022;2023-10-13T02:13:45;12;10;
74333;PMS5003;62753;40.394;-80.022;2023-10-13T02:16:10;10;10;
74333;PMS5003;62753;40.394;-80.022;2023-10-13T02:18:36;9;9;
74333;PMS5003;62753;40.394;-80.022;2023-10-13T02:21:02;8;8;
74333;PMS5003;62753;40.394;-80.022;2023-10-13T02:23:26;9;9;
74333;PMS5003;62753;40.394;-80.022;2023-10-13T02:25:51;8;8;
74333;PMS5003;62753;40.394;-80.022;2023-10-13T02:28:17;9;9;
74333;PMS5003;62753;40.394;-80.022;2023-10-13T02:30:43;10;7;
74333;PMS5003;62753;40.394;-80.022;2023-10-13T02:33:08;10;10;
74333;PMS5003;62753;40.394;-80.022;2023-10-13T02:35:33;10;7;
74333;PMS5003;62753;40.394;-80.022;2023-10-13T02:37:59;9;9;
74333;PMS5003;62753;40.394;-80.022;2023-10-13T02:40:24;12;11;
74333;PMS5003;62753;40.394;-80.022;2023-10-13T02:42:49;11;9;
74333;PMS5003;62753;40.394;-80.022;2023-10-13T02:45:14;8;8;
74333;PMS5003;62753;40.394;-80.022;2023-10-13T02:47:40;9;9;
74333;PMS5003;62753;40.394;-80.022;2023-10-13T02:50:06;8;8;
74333;PMS5003;62753;40.394;-80.022;2023-10-13T02:52:31;13;12;
74333;PMS5003;62753;40.394;-80.022;2023-10-13T02:54:56;9;9;
74333;PMS5003;62753;40.394;-80.022;2023-10-13T02:57:22;9;8;
74333;PMS5003;62753;40.394;-80.022;2023-10-13T02:59:47;10;8;
74333;PMS5003;62753;40.394;-80.022;2023-10-13T03:02:12;11;10;
74333;PMS5003;62753;40.394;-80.022;2023-10-13T03:04:38;10;9;
74333;PMS5003;62753;40.394;-80.022;2023-10-13T03:07:04;11;11;
74333;PMS5003;62753;40.394;-80.022;2023-10-13T03:09:29;11;10;
74333;PMS5003;62753;40.394;-80.022;2023-10-13T03:11:54;14;10;
74333;PMS5003;62753;40.394;-80.022;2023-10-13T03:14:21;11;10;
74333;PMS5003;62753;40.394;-80.022;2023-10-13T03:16:45;13;10;
74333;PMS5003;62753;40.394;-80.022;2023-10-13T03:19:11;14;12;
74333;PMS5003;62753;40.394;-80.022;2023-10-13T03:21:36;14;12;
74333;PMS5003;62753;40.394;-80.022;2023-10-13T03:24:01;12;11;
74333;PMS5003;62753;40.394;-80.022;2023-10-13T03:26:27;10;10;
74333;PMS5003;62753;40.394;-80.022;2023-10-13T03:28:52;13;12;
74333;PMS5003;62753;40.394;-80.022;2023-10-13T03:31:18;14;13;
74333;PMS5003;62753;40.394;-80.022;2023-10-13T03:33:42;10;10;
74333;PMS5003;62753;40.394;-80.022;2023-10-13T03:36:08;13;11;
74333;PMS5003;62753;40.394;-80.022;2023-10-13T03:38:34;13;12;
74333;PMS5003;62753;40.394;-80.022;2023-10-13T03:40:59;12;11;
74333;PMS5003;62753;40.394;-80.022;2023-10-13T03:43:24;16;13;
74333;PMS5003;62753;40.394;-80.022;2023-10-13T03:45:50;13;13;
74333;PMS5003;62753;40.394;-80.022;2023-10-13T03:48:15;14;13;
74333;PMS5003;62753;40.394;-80.022;2023-10-13T03:50:40;17;13;
74333;PMS5003;62753;40.394;-80.022;2023-10-13T03:53:05;12;11;
74333;PMS5003;62753;40.394;-80.022;2023-10-13T03:55:31;14;13;
74333;PMS5003;62753;40.394;-80.022;2023-10-13T03:57:56;14;13;
74333;PMS5003;62753;40.394;-80.022;2023-10-13T04:00:21;15;14;
74333;PMS5003;62753;40.394;-80.022;2023-10-13T04:02:46;16;16;
74333;PMS5003;62753;40.394;-80.022;2023-10-13T04:05:11;16;15;
74333;PMS5003;62753;40.394;-80.022;2023-10-13T04:07:37;12;12;
74333;PMS5003;62753;40.394;-80.022;2023-10-13T04:10:03;14;13;
74333;PMS5003;62753;40.394;-80.022;2023-10-13T04:12:27;14;13;
74333;PMS5003;62753;40.394;-80.022;2023-10-13T04:14:53;14;12;
74333;PMS5003;62753;40.394;-80.022;2023-10-13T04:17:18;18;16;
74333;PMS5003;62753;40.394;-80.022;2023-10-13T04:19:44;15;15;
74333;PMS5003;62753;40.394;-80.022;2023-10-13T04:22:09;20;16;
74333;PMS5003;62753;40.394;-80.022;2023-10-13T04:24:35;15;15;
74333;PMS5003;62753;40.394;-80.022;2023-10-13T04:27:00;17;15;
74333;PMS5003;62753;40.394;-80.022;2023-10-13T04:29:26;16;13;
74333;PMS5003;62753;40.394;-80.022;2023-10-13T04:31:55;13;12;
74333;PMS5003;62753;40.394;-80.022;2023-10-13T04:34:16;16;15;
74333;PMS5003;62753;40.394;-80.022;2023-10-13T04:36:42;13;12;
74333;PMS5003;62753;40.394;-80.022;2023-10-13T04:39:07;10;10;
74333;PMS5003;62753;40.394;-80.022;2023-10-13T04:41:33;16;13;
74333;PMS5003;62753;40.394;-80.022;2023-10-13T04:43:58;12;12;
74333;PMS5003;62753;40.394;-80.022;2023-10-13T04:46:23;15;14;
74333;PMS5003;62753;40.394;-80.022;2023-10-13T04:48:48;19;16;
74333;PMS5003;62753;40.394;-80.022;2023-10-13T04:51:13;12;12;
74333;PMS5003;62753;40.394;-80.022;2023-10-13T04:53:38;14;12;
74333;PMS5003;62753;40.394;-80.022;2023-10-13T04:56:03;17;14;
74333;PMS5003;62753;40.394;-80.022;2023-10-13T04:58:29;14;14;
74333;PMS5003;62753;40.394;-80.022;2023-10-13T05:00:54;23;18;
74333;PMS5003;62753;40.394;-80.022;2023-10-13T05:03:20;16;15;
74333;PMS5003;62753;40.394;-80.022;2023-10-13T05:05:45;19;16;
74333;PMS5003;62753;40.394;-80.022;2023-10-13T05:08:10;17;17;
74333;PMS5003;62753;40.394;-80.022;2023-10-13T05:10:36;16;14;
74333;PMS5003;62753;40.394;-80.022;2023-10-13T05:13:01;17;14;
74333;PMS5003;62753;40.394;-80.022;2023-10-13T05:15:26;14;14;
74333;PMS5003;62753;40.394;-80.022;2023-10-13T05:17:52;20;19;
74333;PMS5003;62753;40.394;-80.022;2023-10-13T05:20:17;16;14;
74333;PMS5003;62753;40.394;-80.022;2023-10-13T05:22:42;16;13;
74333;PMS5003;62753;40.394;-80.022;2023-10-13T05:25:08;17;16;
74333;PMS5003;62753;40.394;-80.022;2023-10-13T05:27:34;17;16;
74333;PMS5003;62753;40.394;-80.022;2023-10-13T05:29:59;18;17;
74333;PMS5003;62753;40.394;-80.022;2023-10-13T05:32:24;16;14;
74333;PMS5003;62753;40.394;-80.022;2023-10-13T05:34:50;19;17;
74333;PMS5003;62753;40.394;-80.022;2023-10-13T05:37:15;15;14;
74333;PMS5003;62753;40.394;-80.022;2023-10-13T05:39:40;17;14;
74333;PMS5003;62753;40.394;-80.022;2023-10-13T05:42:05;14;14;
74333;PMS5003;62753;40.394;-80.022;2023-10-13T05:44:31;15;14;
74333;PMS5003;62753;40.394;-80.022;2023-10-13T05:46:56;15;14;
74333;PMS5003;62753;40.394;-80.022;2023-10-13T05:49:21;15;15;
74333;PMS5003;62753;40.394;-80.022;2023-10-13T05:51:46;16;15;
74333;PMS5003;62753;40.394;-80.022;2023-10-13T05:54:11;18;16;
74333;PMS5003;62753;40.394;-80.022;2023-10-13T05:56:36;19;16;
74333;PMS5003;62753;40.394;-80.022;2023-10-13T05:59:01;18;14;
74333;PMS5003;62753;40.394;-80.022;2023-10-13T06:01:27;13;13;
74333;PMS5003;62753;40.394;-80.022;2023-10-13T06:03:52;19;18;
74333;PMS5003;62753;40.394;-80.022;2023-10-13T06:06:17;16;14;
74333;PMS5003;62753;40.394;-80.022;2023-10-13T06:08:42;17;17;
74333;PMS5003;62753;40.394;-80.022;2023-10-13T06:11:07;12;11;
74333;PMS5003;62753;40.394;-80.022;2023-10-13T06:13:32;19;15;
74333;PMS5003;62753;40.394;-80.022;2023-10-13T06:15:58;17;15;
74333;PMS5003;62753;40.394;-80.022;2023-10-13T06:18:23;15;14;
74333;PMS5003;62753;40.394;-80.022;2023-10-13T06:20:49;18;16;
74333;PMS5003;62753;40.394;-80.022;2023-10-13T06:23:14;13;13;
74333;PMS5003;62753;40.394;-80.022;2023-10-13T06:25:39;15;14;
74333;PMS5003;62753;40.394;-80.022;2023-10-13T06:28:05;15;14;
74333;PMS5003;62753;40.394;-80.022;2023-10-13T06:30:30;13;12;
74333;PMS5003;62753;40.394;-80.022;2023-10-13T06:32:55;17;16;
74333;PMS5003;62753;40.394;-80.022;2023-10-13T06:35:20;15;14;
74333;PMS5003;62753;40.394;-80.022;2023-10-13T06:37:46;14;14;
74333;PMS5003;62753;40.394;-80.022;2023-10-13T06:40:11;11;11;
74333;PMS5003;62753;40.394;-80.022;2023-10-13T06:42:36;18;14;
74333;PMS5003;62753;40.394;-80.022;2023-10-13T06:45:01;16;16;
74333;PMS5003;62753;40.394;-80.022;2023-10-13T06:47:26;14;13;
74333;PMS5003;62753;40.394;-80.022;2023-10-13T06:49:51;14;13;
74333;PMS5003;62753;40.394;-80.022;2023-10-13T06:52:16;17;14;
74333;PMS5003;62753;40.394;-80.022;2023-10-13T06:54:42;13;13;
74333;PMS5003;62753;40.394;-80.022;2023-10-13T06:57:07;15;14;
74333;PMS5003;62753;40.394;-80.022;2023-10-13T06:59:32;15;13;
74333;PMS5003;62753;40.394;-80.022;2023-10-13T07:01:57;15;13;
74333;PMS5003;62753;40.394;-80.022;2023-10-13T07:04:22;18;16;
74333;PMS5003;62753;40.394;-80.022;2023-10-13T07:06:48;16;15;
74333;PMS5003;62753;40.394;-80.022;2023-10-13T07:09:13;14;11;
74333;PMS5003;62753;40.394;-80.022;2023-10-13T07:11:38;14;14;
74333;PMS5003;62753;40.394;-80.022;2023-10-13T07:14:03;15;14;
74333;PMS5003;62753;40.394;-80.022;2023-10-13T07:16:29;12;11;
74333;PMS5003;62753;40.394;-80.022;2023-10-13T07:18:54;14;12;
74333;PMS5003;62753;40.394;-80.022;2023-10-13T07:21:19;14;14;
74333;PMS5003;62753;40.394;-80.022;2023-10-13T07:23:44;13;12;
74333;PMS5003;62753;40.394;-80.022;2023-10-13T07:26:10;13;11;
74333;PMS5003;62753;40.394;-80.022;2023-10-13T07:28:35;14;14;
74333;PMS5003;62753;40.394;-80.022;2023-10-13T07:31:01;11;11;
74333;PMS5003;62753;40.394;-80.022;2023-10-13T07:33:26;15;14;
74333;PMS5003;62753;40.394;-80.022;2023-10-13T07:38:17;13;13;
74333;PMS5003;62753;40.394;-80.022;2023-10-13T07:40:41;15;14;
74333;PMS5003;62753;40.394;-80.022;2023-10-13T07:43:07;13;13;
74333;PMS5003;62753;40.394;-80.022;2023-10-13T07:45:32;17;14;
74333;PMS5003;62753;40.394;-80.022;2023-10-13T07:47:57;12;11;
74333;PMS5003;62753;40.394;-80.022;2023-10-13T07:50:23;14;14;
74333;PMS5003;62753;40.394;-80.022;2023-10-13T07:52:48;14;14;
74333;PMS5003;62753;40.394;-80.022;2023-10-13T07:55:14;12;12;
74333;PMS5003;62753;40.394;-80.022;2023-10-13T07:57:39;14;12;
74333;PMS5003;62753;40.394;-80.022;2023-10-13T08:00:04;14;14;
74333;PMS5003;62753;40.394;-80.022;2023-10-13T08:02:29;14;12;
74333;PMS5003;62753;40.394;-80.022;2023-10-13T08:04:54;13;13;
74333;PMS5003;62753;40.394;-80.022;2023-10-13T08:07:20;14;13;
74333;PMS5003;62753;40.394;-80.022;2023-10-13T08:09:45;13;12;
74333;PMS5003;62753;40.394;-80.022;2023-10-13T08:12:10;13;13;
74333;PMS5003;62753;40.394;-80.022;2023-10-13T08:14:35;12;11;
74333;PMS5003;62753;40.394;-80.022;2023-10-13T08:17:01;14;11;
74333;PMS5003;62753;40.394;-80.022;2023-10-13T08:19:27;10;10;
74333;PMS5003;62753;40.394;-80.022;2023-10-13T08:21:51;15;12;
74333;PMS5003;62753;40.394;-80.022;2023-10-13T08:24:17;14;13;
74333;PMS5003;62753;40.394;-80.022;2023-10-13T08:26:42;15;13;
74333;PMS5003;62753;40.394;-80.022;2023-10-13T08:29:07;12;11;
74333;PMS5003;62753;40.394;-80.022;2023-10-13T08:31:32;16;13;
74333;PMS5003;62753;40.394;-80.022;2023-10-13T08:33:57;13;12;
74333;PMS5003;62753;40.394;-80.022;2023-10-13T08:36:23;11;11;
74333;PMS5003;62753;40.394;-80.022;2023-10-13T08:38:48;14;11;
74333;PMS5003;62753;40.394;-80.022;2023-10-13T08:41:14;11;11;
74333;PMS5003;62753;40.394;-80.022;2023-10-13T08:43:39;16;14;
74333;PMS5003;62753;40.394;-80.022;2023-10-13T08:46:04;12;11;
74333;PMS5003;62753;40.394;-80.022;2023-10-13T08:48:30;13;12;
74333;PMS5003;62753;40.394;-80.022;2023-10-13T08:50:55;11;10;
74333;PMS5003;62753;40.394;-80.022;2023-10-13T08:53:21;11;10;
74333;PMS5003;62753;40.394;-80.022;2023-10-13T08:55:46;16;11;
74333;PMS5003;62753;40.394;-80.022;2023-10-13T08:58:12;14;12;
74333;PMS5003;62753;40.394;-80.022;2023-10-13T09:00:37;11;11;
74333;PMS5003;62753;40.394;-80.022;2023-10-13T09:03:04;11;11;
74333;PMS5003;62753;40.394;-80.022;2023-10-13T09:05:28;18;14;
74333;PMS5003;62753;40.394;-80.022;2023-10-13T09:07:53;15;13;
74333;PMS5003;62753;40.394;-80.022;2023-10-13T09:10:22;11;10;
74333;PMS5003;62753;40.394;-80.022;2023-10-13T09:12:44;12;12;
74333;PMS5003;62753;40.394;-80.022;2023-10-13T09:15:09;13;12;
74333;PMS5003;62753;40.394;-80.022;2023-10-13T09:20:00;12;11;
74333;PMS5003;62753;40.394;-80.022;2023-10-13T09:22:26;12;10;
74333;PMS5003;62753;40.394;-80.022;2023-10-13T09:24:51;11;11;
74333;PMS5003;62753;40.394;-80.022;2023-10-13T09:27:16;11;11;
74333;PMS5003;62753;40.394;-80.022;2023-10-13T09:29:42;11;11;
74333;PMS5003;62753;40.394;-80.022;2023-10-13T09:32:07;14;11;
74333;PMS5003;62753;40.394;-80.022;2023-10-13T09:34:32;13;12;
74333;PMS5003;62753;40.394;-80.022;2023-10-13T09:36:58;8;8;
74333;PMS5003;62753;40.394;-80.022;2023-10-13T09:39:24;12;11;
74333;PMS5003;62753;40.394;-80.022;2023-10-13T09:41:48;11;9;
74333;PMS5003;62753;40.394;-80.022;2023-10-13T09:44:14;11;11;
74333;PMS5003;62753;40.394;-80.022;2023-10-13T09:46:39;10;10;
74333;PMS5003;62753;40.394;-80.022;2023-10-13T09:49:05;16;12;
74333;PMS5003;62753;40.394;-80.022;2023-10-13T09:51:30;13;13;
74333;PMS5003;62753;40.394;-80.022;2023-10-13T09:53:56;13;12;
74333;PMS5003;62753;40.394;-80.022;2023-10-13T09:56:22;12;12;
74333;PMS5003;62753;40.394;-80.022;2023-10-13T09:58:48;11;9;
74333;PMS5003;62753;40.394;-80.022;2023-10-13T10:01:11;14;11;
74333;PMS5003;62753;40.394;-80.022;2023-10-13T10:06:02;12;10;
74333;PMS5003;62753;40.394;-80.022;2023-10-13T10:08:27;13;10;
74333;PMS5003;62753;40.394;-80.022;2023-10-13T10:10:56;16;13;
74333;PMS5003;62753;40.394;-80.022;2023-10-13T10:13:19;10;9;
74333;PMS5003;62753;40.394;-80.022;2023-10-13T10:15:43;12;10;
74333;PMS5003;62753;40.394;-80.022;2023-10-13T10:18:17;11;9;
74333;PMS5003;62753;40.394;-80.022;2023-10-13T10:20:34;11;11;
74333;PMS5003;62753;40.394;-80.022;2023-10-13T10:22:59;13;12;
74333;PMS5003;62753;40.394;-80.022;2023-10-13T10:25:29;12;11;
74333;PMS5003;62753;40.394;-80.022;2023-10-13T10:27:54;13;12;
74333;PMS5003;62753;40.394;-80.022;2023-10-13T10:30:23;10;9;
74333;PMS5003;62753;40.394;-80.022;2023-10-13T10:32:40;14;14;
74333;PMS5003;62753;40.394;-80.022;2023-10-13T10:35:07;11;10;
74333;PMS5003;62753;40.394;-80.022;2023-10-13T10:37:31;10;9;
74333;PMS5003;62753;40.394;-80.022;2023-10-13T10:39:57;15;13;
74333;PMS5003;62753;40.394;-80.022;2023-10-13T10:42:22;14;12;
74333;PMS5003;62753;40.394;-80.022;2023-10-13T10:44:49;11;9;
74333;PMS5003;62753;40.394;-80.022;2023-10-13T10:47:13;8;8;
74333;PMS5003;62753;40.394;-80.022;2023-10-13T10:49:38;9;9;
74333;PMS5003;62753;40.394;-80.022;2023-10-13T10:52:03;13;11;
74333;PMS5003;62753;40.394;-80.022;2023-10-13T10:54:28;13;12;
74333;PMS5003;62753;40.394;-80.022;2023-10-13T10:56:55;10;10;
74333;PMS5003;62753;40.394;-80.022;2023-10-13T10:59:19;11;11;
74333;PMS5003;62753;40.394;-80.022;2023-10-13T11:01:45;10;10;
74333;PMS5003;62753;40.394;-80.022;2023-10-13T11:04:10;11;10;
74333;PMS5003;62753;40.394;-80.022;2023-10-13T11:06:35;12;11;
74333;PMS5003;62753;40.394;-80.022;2023-10-13T11:09:02;12;11;
74333;PMS5003;62753;40.394;-80.022;2023-10-13T11:11:29;12;12;
74333;PMS5003;62753;40.394;-80.022;2023-10-13T11:13:51;11;11;
74333;PMS5003;62753;40.394;-80.022;2023-10-13T11:16:20;11;10;
74333;PMS5003;62753;40.394;-80.022;2023-10-13T11:18:42;11;10;
74333;PMS5003;62753;40.394;-80.022;2023-10-13T11:21:07;11;10;
74333;PMS5003;62753;40.394;-80.022;2023-10-13T11:23:33;13;10;
74333;PMS5003;62753;40.394;-80.022;2023-10-13T11:25:58;11;10;
74333;PMS5003;62753;40.394;-80.022;2023-10-13T11:28:23;11;10;
74333;PMS5003;62753;40.394;-80.022;2023-10-13T11:30:48;11;8;
74333;PMS5003;62753;40.394;-80.022;2023-10-13T11:33:13;9;9;
74333;PMS5003;62753;40.394;-80.022;2023-10-13T11:35:39;9;9;
74333;PMS5003;62753;40.394;-80.022;2023-10-13T11:38:04;10;10;
74333;PMS5003;62753;40.394;-80.022;2023-10-13T11:40:30;13;11;
74333;PMS5003;62753;40.394;-80.022;2023-10-13T11:42:55;9;9;
74333;PMS5003;62753;40.394;-80.022;2023-10-13T11:45:20;11;10;
74333;PMS5003;62753;40.394;-80.022;2023-10-13T11:47:45;8;8;
74333;PMS5003;62753;40.394;-80.022;2023-10-13T11:50:10;11;9;
74333;PMS5003;62753;40.394;-80.022;2023-10-13T11:52:36;8;8;
74333;PMS5003;62753;40.394;-80.022;2023-10-13T11:55:01;12;10;
74333;PMS5003;62753;40.394;-80.022;2023-10-13T11:57:27;8;8;
74333;PMS5003;62753;40.394;-80.022;2023-10-13T11:59:52;9;8;
74333;PMS5003;62753;40.394;-80.022;2023-10-13T12:02:17;9;9;
74333;PMS5003;62753;40.394;-80.022;2023-10-13T12:04:43;10;9;
74333;PMS5003;62753;40.394;-80.022;2023-10-13T12:07:08;8;8;
74333;PMS5003;62753;40.394;-80.022;2023-10-13T12:09:33;12;11;
74333;PMS5003;62753;40.394;-80.022;2023-10-13T12:11:59;9;8;
74333;PMS5003;62753;40.394;-80.022;2023-10-13T12:14:24;9;9;
74333;PMS5003;62753;40.394;-80.022;2023-10-13T12:16:50;14;13;
74333;PMS5003;62753;40.394;-80.022;2023-10-13T12:19:15;10;10;
74333;PMS5003;62753;40.394;-80.022;2023-10-13T12:21:40;10;10;
74333;PMS5003;62753;40.394;-80.022;2023-10-13T12:24:06;10;10;
74333;PMS5003;62753;40.394;-80.022;2023-10-13T12:26:31;11;10;
74333;PMS5003;62753;40.394;-80.022;2023-10-13T12:28:56;13;13;
74333;PMS5003;62753;40.394;-80.022;2023-10-13T12:31:21;9;9;
74333;PMS5003;62753;40.394;-80.022;2023-10-13T12:33:46;11;9;
74333;PMS5003;62753;40.394;-80.022;2023-10-13T12:36:12;9;8;
74333;PMS5003;62753;40.394;-80.022;2023-10-13T12:38:38;10;9;
74333;PMS5003;62753;40.394;-80.022;2023-10-13T12:41:04;8;8;
74333;PMS5003;62753;40.394;-80.022;2023-10-13T12:43:28;7;7;
74333;PMS5003;62753;40.394;-80.022;2023-10-13T12:45:53;11;9;
74333;PMS5003;62753;40.394;-80.022;2023-10-13T12:48:19;9;9;
74333;PMS5003;62753;40.394;-80.022;2023-10-13T12:50:44;10;9;
74333;PMS5003;62753;40.394;-80.022;2023-10-13T12:53:10;10;9;
74333;PMS5003;62753;40.394;-80.022;2023-10-13T12:55:39;8;8;
74333;PMS5003;62753;40.394;-80.022;2023-10-13T12:58:00;8;8;
74333;PMS5003;62753;40.394;-80.022;2023-10-13T13:00:26;7;6;
74333;PMS5003;62753;40.394;-80.022;2023-10-13T13:02:52;7;7;
74333;PMS5003;62753;40.394;-80.022;2023-10-13T13:05:17;10;9;
74333;PMS5003;62753;40.394;-80.022;2023-10-13T13:07:42;9;8;
74333;PMS5003;62753;40.394;-80.022;2023-10-13T13:10:08;12;10;
74333;PMS5003;62753;40.394;-80.022;2023-10-13T13:12:33;7;6;
74333;PMS5003;62753;40.394;-80.022;2023-10-13T13:14:58;7;7;
74333;PMS5003;62753;40.394;-80.022;2023-10-13T13:17:24;9;8;
74333;PMS5003;62753;40.394;-80.022;2023-10-13T13:19:50;8;8;
74333;PMS5003;62753;40.394;-80.022;2023-10-13T13:22:15;8;8;
74333;PMS5003;62753;40.394;-80.022;2023-10-13T13:24:40;8;8;
74333;PMS5003;62753;40.394;-80.022;2023-10-13T13:27:05;8;7;
74333;PMS5003;62753;40.394;-80.022;2023-10-13T13:29:31;9;9;
74333;PMS5003;62753;40.394;-80.022;2023-10-13T13:31:56;8;7;
74333;PMS5003;62753;40.394;-80.022;2023-10-13T13:34:21;8;7;
74333;PMS5003;62753;40.394;-80.022;2023-10-13T13:36:47;8;8;
74333;PMS5003;62753;40.394;-80.022;2023-10-13T13:39:12;7;7;
74333;PMS5003;62753;40.394;-80.022;2023-10-13T13:41:37;7;7;
74333;PMS5003;62753;40.394;-80.022;2023-10-13T13:44:03;6;5;
74333;PMS5003;62753;40.394;-80.022;2023-10-13T13:46:29;7;6;
74333;PMS5003;62753;40.394;-80.022;2023-10-13T13:48:54;5;5;
74333;PMS5003;62753;40.394;-80.022;2023-10-13T13:51:19;5;4;
74333;PMS5003;62753;40.394;-80.022;2023-10-13T13:53:44;5;5;
74333;PMS5003;62753;40.394;-80.022;2023-10-13T13:56:10;4;3;
74333;PMS5003;62753;40.394;-80.022;2023-10-13T13:58:35;6;6;
74333;PMS5003;62753;40.394;-80.022;2023-10-13T14:01:00;4;4;
74333;PMS5003;62753;40.394;-80.022;2023-10-13T14:03:26;4;4;
74333;PMS5003;62753;40.394;-80.022;2023-10-13T14:05:51;3;3;
74333;PMS5003;62753;40.394;-80.022;2023-10-13T14:08:16;5;5;
74333;PMS5003;62753;40.394;-80.022;2023-10-13T14:10:41;6;6;
74333;PMS5003;62753;40.394;-80.022;2023-10-13T14:13:07;5;5;
74333;PMS5003;62753;40.394;-80.022;2023-10-13T14:15:33;4;4;
74333;PMS5003;62753;40.394;-80.022;2023-10-13T14:17:57;3;2;
74333;PMS5003;62753;40.394;-80.022;2023-10-13T14:20:23;5;4;
74333;PMS5003;62753;40.394;-80.022;2023-10-13T14:22:48;5;4;
74333;PMS5003;62753;40.394;-80.022;2023-10-13T14:25:13;5;5;
74333;PMS5003;62753;40.394;-80.022;2023-10-13T14:27:38;5;4;
74333;PMS5003;62753;40.394;-80.022;2023-10-13T14:30:04;4;4;
74333;PMS5003;62753;40.394;-80.022;2023-10-13T14:32:29;5;4;
74333;PMS5003;62753;40.394;-80.022;2023-10-13T14:34:54;3;3;
74333;PMS5003;62753;40.394;-80.022;2023-10-13T14:37:20;3;3;
74333;PMS5003;62753;40.394;-80.022;2023-10-13T14:39:45;3;3;
74333;PMS5003;62753;40.394;-80.022;2023-10-13T14:42:10;3;3;
74333;PMS5003;62753;40.394;-80.022;2023-10-13T14:44:35;3;3;
74333;PMS5003;62753;40.394;-80.022;2023-10-13T14:47:01;4;4;
74333;PMS5003;62753;40.394;-80.022;2023-10-13T14:49:26;2;2;
74333;PMS5003;62753;40.394;-80.022;2023-10-13T14:51:51;7;5;
74333;PMS5003;62753;40.394;-80.022;2023-10-13T14:54:17;3;3;
74333;PMS5003;62753;40.394;-80.022;2023-10-13T14:56:42;4;4;
74333;PMS5003;62753;40.394;-80.022;2023-10-13T14:59:07;2;2;
74333;PMS5003;62753;40.394;-80.022;2023-10-13T15:01:33;4;4;
74333;PMS5003;62753;40.394;-80.022;2023-10-13T15:03:58;4;4;
74333;PMS5003;62753;40.394;-80.022;2023-10-13T15:06:24;4;4;
74333;PMS5003;62753;40.394;-80.022;2023-10-13T15:08:48;3;2;
74333;PMS5003;62753;40.394;-80.022;2023-10-13T15:11:14;2;2;
74333;PMS5003;62753;40.394;-80.022;2023-10-13T15:13:39;3;3;
74333;PMS5003;62753;40.394;-80.022;2023-10-13T15:18:30;2;2;
74333;PMS5003;62753;40.394;-80.022;2023-10-13T15:20:55;3;3;
74333;PMS5003;62753;40.394;-80.022;2023-10-13T15:23:20;5;3;
74333;PMS5003;62753;40.394;-80.022;2023-10-13T15:25:46;3;3;
74333;PMS5003;62753;40.394;-80.022;2023-10-13T15:28:11;3;3;
74333;PMS5003;62753;40.394;-80.022;2023-10-13T15:30:36;2;1;
74333;PMS5003;62753;40.394;-80.022;2023-10-13T15:33:02;2;2;
74333;PMS5003;62753;40.394;-80.022;2023-10-13T15:35:27;3;3;
74333;PMS5003;62753;40.394;-80.022;2023-10-13T15:37:52;4;4;
74333;PMS5003;62753;40.394;-80.022;2023-10-13T15:40:17;3;3;
74333;PMS5003;62753;40.394;-80.022;2023-10-13T15:42:43;2;2;
74333;PMS5003;62753;40.394;-80.022;2023-10-13T15:45:09;3;3;
74333;PMS5003;62753;40.394;-80.022;2023-10-13T15:47:33;2;1;
74333;PMS5003;62753;40.394;-80.022;2023-10-13T15:49:58;3;3;
74333;PMS5003;62753;40.394;-80.022;2023-10-13T15:52:24;3;3;
74333;PMS5003;62753;40.394;-80.022;2023-10-13T15:54:49;1;1;
74333;PMS5003;62753;40.394;-80.022;2023-10-13T15:57:15;3;2;